Time;durP1;ratioP1;P1;durP2;ratioP2;P2;SDS_P1;SDS_P2;PMS_P1;PMS_P2;Temp;Humidity;BMP_temperature;BMP_pressure;BME280_temperature;BME280_humidity;BME280_pressure;Samples;Min_cycle;Max_cycle;Signal;HPM_P1;HPM_P2
2021/08/13 03:50:11;;;;;;;6.45;3.28;;;19.10;59.60;;;;;;5051402;28;20060;-69
2021/08/13 03:52:36;;;;;;;6.10;3.45;;;19.10;59.50;;;;;;5051341;28;20050;-68
2021/08/13 03:55:02;;;;;;;6.40;3.55;;;19.20;59.60;;;;;;5044363;28;20123;-70
2021/08/13 03:57:28;;;;;;;5.68;3.50;;;19.20;59.50;;;;;;5031396;28;20117;-69
2021/08/13 03:59:53;;;;;;;6.50;3.80;;;19.30;59.50;;;;;;5031426;28;20064;-70
2021/08/13 04:02:19;;;;;;;6.72;3.42;;;19.30;59.60;;;;;;5031295;28;20029;-69
2021/08/13 04:04:45;;;;;;;6.50;3.47;;;19.40;59.60;;;;;;5031378;28;20025;-69
2021/08/13 04:07:11;;;;;;;5.20;2.90;;;19.40;59.60;;;;;;5031292;28;20032;-69
2021/08/13 04:09:37;;;;;;;5.40;3.08;;;19.40;59.50;;;;;;5031182;28;20076;-71
2021/08/13 04:12:03;;;;;;;5.22;2.80;;;19.40;59.50;;;;;;5031325;28;20030;-70
2021/08/13 04:14:29;;;;;;;7.53;4.40;;;19.50;59.50;;;;;;5031282;28;20056;-65
2021/08/13 04:16:54;;;;;;;7.13;4.47;;;19.50;60.80;;;;;;5031209;28;20493;-65
2021/08/13 04:19:20;;;;;;;7.82;4.43;;;19.40;61.30;;;;;;5040500;28;20415;-63
2021/08/13 04:21:45;;;;;;;7.55;4.57;;;19.30;61.60;;;;;;5054967;28;20082;-63
2021/08/13 04:24:11;;;;;;;7.20;4.20;;;19.10;61.90;;;;;;5054934;28;20403;-62
2021/08/13 04:26:37;;;;;;;7.30;4.55;;;19.00;62.00;;;;;;5055036;28;20032;-62
2021/08/13 04:29:02;;;;;;;6.75;4.13;;;18.90;62.50;;;;;;5055086;28;20075;-62
2021/08/13 04:31:28;;;;;;;6.78;4.38;;;18.80;62.70;;;;;;5054667;28;20021;-62
2021/08/13 04:33:54;;;;;;;6.68;4.38;;;18.80;63.30;;;;;;5053302;28;20064;-62
2021/08/13 04:36:20;;;;;;;7.35;4.57;;;18.80;63.30;;;;;;5055059;28;20356;-62
2021/08/13 04:38:45;;;;;;;7.10;4.22;;;18.80;63.40;;;;;;5054599;28;20024;-63
2021/08/13 04:41:11;;;;;;;7.07;4.47;;;18.80;63.70;;;;;;5054742;28;20064;-62
2021/08/13 04:43:37;;;;;;;6.63;4.40;;;18.80;63.60;;;;;;5054652;28;20053;-62
2021/08/13 04:46:02;;;;;;;7.15;5.00;;;18.80;63.70;;;;;;5054335;28;20468;-62
2021/08/13 04:48:28;;;;;;;7.80;5.05;;;18.80;63.80;;;;;;5054767;28;20468;-62
2021/08/13 04:50:54;;;;;;;7.47;4.93;;;18.90;64.20;;;;;;5054392;28;20063;-62
2021/08/13 04:53:19;;;;;;;7.43;4.90;;;18.90;64.30;;;;;;5054098;28;20078;-63
2021/08/13 04:55:45;;;;;;;7.03;4.80;;;18.90;64.40;;;;;;5054154;28;20392;-64
2021/08/13 04:58:11;;;;;;;6.47;4.22;;;18.90;64.40;;;;;;5054397;28;20108;-62
2021/08/13 05:00:36;;;;;;;7.40;4.57;;;18.90;64.40;;;;;;5054102;28;20032;-62
2021/08/13 05:03:06;;;;;;;7.82;4.90;;;19.00;64.40;;;;;;5054197;28;20098;-63
2021/08/13 05:05:32;;;;;;;8.05;4.90;;;19.00;64.50;;;;;;5054282;28;20017;-63
2021/08/13 05:07:57;;;;;;;7.10;4.78;;;19.10;64.70;;;;;;5054217;28;20046;-62
2021/08/13 05:10:23;;;;;;;8.02;4.72;;;19.10;64.70;;;;;;5054158;28;20388;-62
2021/08/13 05:12:50;;;;;;;7.50;4.78;;;19.10;64.50;;;;;;5054132;28;20174;-63
2021/08/13 05:15:16;;;;;;;7.43;4.65;;;19.20;64.60;;;;;;5053344;28;20060;-62
2021/08/13 05:17:44;;;;;;;7.03;4.93;;;19.20;64.70;;;;;;5054365;28;20036;-62
2021/08/13 05:20:10;;;;;;;6.95;4.40;;;19.20;64.80;;;;;;5053905;28;20028;-62
2021/08/13 05:22:36;;;;;;;7.85;4.82;;;19.20;64.80;;;;;;5054050;28;20021;-62
2021/08/13 05:25:04;;;;;;;8.07;4.80;;;19.30;65.00;;;;;;5053996;28;20029;-63
2021/08/13 05:27:29;;;;;;;7.18;5.10;;;19.30;65.10;;;;;;5054110;28;20747;-62
2021/08/13 05:29:55;;;;;;;7.20;4.72;;;19.40;65.40;;;;;;5053723;28;20021;-62
2021/08/13 05:32:22;;;;;;;7.55;4.80;;;19.50;65.20;;;;;;5052249;28;20029;-63
2021/08/13 05:34:48;;;;;;;7.63;4.80;;;19.50;65.20;;;;;;5053629;28;20103;-61
2021/08/13 05:37:13;;;;;;;8.05;5.22;;;19.50;65.20;;;;;;5053439;28;20136;-63
2021/08/13 05:39:39;;;;;;;9.43;5.50;;;19.60;65.60;;;;;;5053522;28;20028;-64
2021/08/13 05:42:05;;;;;;;7.05;4.70;;;19.60;65.40;;;;;;5052169;28;20021;-64
2021/08/13 05:44:31;;;;;;;8.98;5.07;;;19.70;66.00;;;;;;5053339;28;20036;-63
2021/08/13 05:46:57;;;;;;;7.65;5.07;;;19.70;65.40;;;;;;5053246;28;20040;-62
2021/08/13 05:49:23;;;;;;;7.70;4.80;;;19.80;65.60;;;;;;5053108;28;20061;-62
2021/08/13 05:51:48;;;;;;;8.15;4.97;;;19.80;65.50;;;;;;5053382;28;20024;-63
2021/08/13 05:54:14;;;;;;;8.35;5.72;;;19.90;65.40;;;;;;5052930;28;20040;-63
2021/08/13 05:56:40;;;;;;;8.15;5.20;;;19.90;65.70;;;;;;5053269;28;20040;-64
2021/08/13 05:59:05;;;;;;;8.10;5.28;;;19.90;65.40;;;;;;5053115;28;20049;-63
2021/08/13 06:01:31;;;;;;;7.78;5.00;;;20.00;65.50;;;;;;5053071;28;20025;-62
2021/08/13 06:03:57;;;;;;;8.00;4.88;;;20.00;65.50;;;;;;5052695;28;20025;-62
2021/08/13 06:06:23;;;;;;;8.50;5.30;;;20.10;65.60;;;;;;5052738;28;20431;-63
2021/08/13 06:08:48;;;;;;;8.05;5.43;;;20.10;65.70;;;;;;5052841;28;20072;-62
2021/08/13 06:11:14;;;;;;;8.32;5.70;;;20.20;65.90;;;;;;5051369;28;20041;-63
2021/08/13 06:13:40;;;;;;;8.13;5.38;;;20.30;66.00;;;;;;5052841;28;20060;-63
2021/08/13 06:16:06;;;;;;;8.88;5.38;;;20.30;66.00;;;;;;5052687;28;20020;-63
2021/08/13 06:18:31;;;;;;;7.78;5.30;;;20.30;65.90;;;;;;5052557;28;20017;-63
2021/08/13 06:20:57;;;;;;;8.80;5.20;;;20.30;65.80;;;;;;5052360;28;20025;-63
2021/08/13 06:23:23;;;;;;;7.72;5.20;;;20.40;66.00;;;;;;5052434;28;20025;-64
2021/08/13 06:25:49;;;;;;;8.45;5.05;;;20.40;66.20;;;;;;5052603;28;20029;-64
2021/08/13 06:28:14;;;;;;;8.10;5.60;;;20.50;66.30;;;;;;5052806;28;20033;-63
2021/08/13 06:30:40;;;;;;;8.15;5.28;;;20.60;66.20;;;;;;5052297;28;20033;-64
2021/08/13 06:33:06;;;;;;;8.02;5.40;;;20.70;66.40;;;;;;5032354;28;20041;-63
2021/08/13 06:35:31;;;;;;;8.63;5.60;;;20.80;66.40;;;;;;5032313;28;20025;-64
2021/08/13 06:37:58;;;;;;;8.30;5.10;;;20.80;66.90;;;;;;5032249;28;20025;-63
2021/08/13 06:40:24;;;;;;;7.50;5.40;;;20.90;66.10;;;;;;5032295;28;20022;-63
2021/08/13 06:42:50;;;;;;;7.22;5.07;;;20.90;65.90;;;;;;5031703;28;20029;-64
2021/08/13 06:45:19;;;;;;;8.40;5.50;;;21.00;65.90;;;;;;5032292;28;20036;-63
2021/08/13 06:47:45;;;;;;;8.10;5.72;;;21.10;66.10;;;;;;5030912;28;20026;-62
2021/08/13 06:50:12;;;;;;;7.75;5.32;;;21.20;65.90;;;;;;5031828;28;20084;-64
2021/08/13 06:52:38;;;;;;;7.90;5.30;;;21.20;65.50;;;;;;5031980;28;20420;-62
2021/08/13 06:55:05;;;;;;;7.35;5.25;;;21.30;65.40;;;;;;5031828;28;20029;-63
2021/08/13 06:57:31;;;;;;;8.23;5.30;;;21.30;65.30;;;;;;5032062;28;20026;-63
2021/08/13 06:59:56;;;;;;;7.05;5.13;;;21.40;65.10;;;;;;5031889;28;20031;-64
2021/08/13 07:02:23;;;;;;;7.60;4.80;;;21.50;64.60;;;;;;5031871;28;20112;-63
2021/08/13 07:04:49;;;;;;;7.20;4.80;;;21.60;64.20;;;;;;5031806;28;20029;-62
2021/08/13 07:07:15;;;;;;;6.55;4.75;;;21.70;64.20;;;;;;5032088;28;20033;-64
2021/08/13 07:09:45;;;;;;;7.97;5.05;;;21.90;63.60;;;;;;5032339;28;20033;-64
2021/08/13 07:12:12;;;;;;;7.68;4.88;;;21.90;63.40;;;;;;5031431;28;20117;-64
2021/08/13 07:14:37;;;;;;;8.88;5.07;;;22.00;63.40;;;;;;5031626;28;20025;-62
2021/08/13 07:17:03;;;;;;;6.82;4.80;;;22.10;63.20;;;;;;5032047;28;20499;-62
2021/08/13 07:19:29;;;;;;;7.95;4.68;;;22.20;62.60;;;;;;5031512;28;20446;-63
2021/08/13 07:21:54;;;;;;;7.10;4.60;;;22.20;62.30;;;;;;5063640;28;20024;-65
2021/08/13 07:24:21;;;;;;;7.32;4.70;;;22.40;61.90;;;;;;5031619;28;20045;-63
2021/08/13 07:26:47;;;;;;;9.85;5.43;;;22.50;62.30;;;;;;5031471;28;20028;-63
2021/08/13 07:29:13;;;;;;;8.20;5.38;;;22.60;61.30;;;;;;5031370;28;20021;-62
2021/08/13 07:31:39;;;;;;;8.23;4.97;;;22.60;61.10;;;;;;5038032;28;20108;-63
2021/08/13 07:34:05;;;;;;;6.82;4.75;;;22.70;61.20;;;;;;5051291;28;20064;-63
2021/08/13 07:36:30;;;;;;;7.35;5.07;;;22.80;61.10;;;;;;5051217;28;20029;-64
2021/08/13 07:38:56;;;;;;;6.90;4.68;;;23.00;60.80;;;;;;5051626;28;20434;-63
2021/08/13 07:41:22;;;;;;;7.65;5.10;;;23.10;60.60;;;;;;5051066;28;20068;-64
2021/08/13 07:43:47;;;;;;;7.15;4.50;;;23.30;60.30;;;;;;5051123;28;20033;-64
2021/08/13 07:46:13;;;;;;;7.43;4.30;;;23.40;60.10;;;;;;5051056;28;20078;-64
2021/08/13 07:48:39;;;;;;;6.38;3.75;;;23.60;59.80;;;;;;5051256;28;20025;-62
2021/08/13 07:51:05;;;;;;;6.47;4.07;;;23.80;59.30;;;;;;5050994;28;20041;-64
2021/08/13 07:53:31;;;;;;;6.75;4.38;;;23.90;58.90;;;;;;5050697;28;20037;-64
2021/08/13 07:55:57;;;;;;;6.78;4.20;;;24.10;58.30;;;;;;5053656;28;20025;-62
2021/08/13 07:58:23;;;;;;;6.53;3.92;;;24.20;57.60;;;;;;5055283;28;20322;-63
2021/08/13 08:00:49;;;;;;;6.00;3.80;;;24.40;56.80;;;;;;5055595;28;20024;-63
2021/08/13 08:03:14;;;;;;;7.63;4.10;;;24.60;56.00;;;;;;5055278;28;20033;-62
2021/08/13 08:05:41;;;;;;;6.88;3.75;;;24.80;55.40;;;;;;5054978;28;20104;-63
2021/08/13 08:08:06;;;;;;;6.57;4.00;;;25.00;54.70;;;;;;5055105;28;20115;-62
2021/08/13 08:10:32;;;;;;;5.80;3.40;;;25.20;54.20;;;;;;5054918;28;20524;-64
2021/08/13 08:12:58;;;;;;;9.02;3.70;;;25.40;54.10;;;;;;5054686;28;20025;-63
2021/08/13 08:15:24;;;;;;;6.72;3.10;;;25.60;52.90;;;;;;5054960;28;20021;-63
2021/08/13 08:17:49;;;;;;;5.60;3.00;;;25.80;52.70;;;;;;5054941;28;20032;-62
2021/08/13 08:20:15;;;;;;;6.60;2.95;;;26.10;52.20;;;;;;5053849;28;20472;-66
2021/08/13 08:22:41;;;;;;;6.00;3.30;;;26.30;51.40;;;;;;5055125;28;20017;-64
2021/08/13 08:25:07;;;;;;;5.05;3.20;;;26.60;50.80;;;;;;5054707;28;20033;-62
2021/08/13 08:27:33;;;;;;;7.70;4.40;;;26.90;49.30;;;;;;5054798;28;20035;-62
2021/08/13 08:29:59;;;;;;;8.05;3.38;;;27.00;49.50;;;;;;5054680;28;20059;-63
2021/08/13 08:32:25;;;;;;;7.68;4.40;;;27.20;47.20;;;;;;5054727;28;20028;-63
2021/08/13 08:34:50;;;;;;;5.85;3.38;;;27.20;47.20;;;;;;5054648;28;20032;-63
2021/08/13 08:37:17;;;;;;;6.82;3.95;;;27.30;48.00;;;;;;5054354;28;20029;-63
2021/08/13 08:39:45;;;;;;;7.68;4.05;;;27.70;47.50;;;;;;5054537;28;20131;-63
2021/08/13 08:42:19;;;;;;;6.95;3.78;;;28.00;46.20;;;;;;5054356;28;20033;-64
2021/08/13 08:44:46;;;;;;;5.10;3.00;;;28.30;45.90;;;;;;5054187;28;20029;-64
2021/08/13 08:47:12;;;;;;;5.65;3.28;;;28.40;46.00;;;;;;5052997;28;20079;-63
2021/08/13 08:49:41;;;;;;;5.57;3.22;;;28.60;45.90;;;;;;5054070;28;20049;-63
2021/08/13 08:52:08;;;;;;;6.38;3.45;;;28.90;45.70;;;;;;5053650;28;20025;-63
2021/08/13 08:54:38;;;;;;;5.55;3.05;;;29.10;44.70;;;;;;5054049;28;20036;-64
2021/08/13 08:57:05;;;;;;;6.32;3.05;;;29.20;44.80;;;;;;5054060;28;20040;-63
2021/08/13 08:59:31;;;;;;;5.30;2.90;;;29.50;44.50;;;;;;5054102;28;20464;-64
2021/08/13 09:01:58;;;;;;;5.55;3.15;;;29.70;44.30;;;;;;5054139;28;20392;-64
2021/08/13 09:04:24;;;;;;;6.88;3.17;;;30.00;44.10;;;;;;5054075;28;20051;-64
2021/08/13 09:06:50;;;;;;;6.07;3.22;;;30.40;43.40;;;;;;5053528;28;20067;-63
2021/08/13 09:09:16;;;;;;;4.80;2.75;;;30.50;42.40;;;;;;5054149;28;20471;-63
2021/08/13 09:11:42;;;;;;;8.40;2.80;;;30.50;43.20;;;;;;5053795;28;20025;-63
2021/08/13 09:14:11;;;;;;;5.10;2.80;;;30.70;42.90;;;;;;5053806;28;20436;-64
2021/08/13 09:16:37;;;;;;;4.53;2.58;;;31.00;41.90;;;;;;5053536;28;20071;-64
2021/08/13 09:19:06;;;;;;;6.85;2.60;;;31.00;41.50;;;;;;5052249;28;20111;-65
2021/08/13 09:21:34;;;;;;;4.65;2.42;;;31.20;40.90;;;;;;5053713;28;20488;-64
2021/08/13 09:24:10;;;;;;;4.20;2.20;;;31.30;40.90;;;;;;5052321;28;20021;-64
2021/08/13 09:26:41;;;;;;;5.30;2.40;;;31.40;40.80;;;;;;5053599;28;20025;-63
2021/08/13 09:29:08;;;;;;;5.70;2.35;;;31.50;40.60;;;;;;5053579;28;20032;-64
2021/08/13 09:31:36;;;;;;;5.57;2.72;;;31.80;40.70;;;;;;5053459;28;20029;-64
2021/08/13 09:34:12;;;;;;;5.07;2.83;;;32.00;40.00;;;;;;5053605;28;20025;-64
2021/08/13 09:36:50;;;;;;;7.00;4.22;;;31.90;39.40;;;;;;5053579;28;20032;-64
2021/08/13 09:39:23;;;;;;;9.95;5.50;;;32.00;39.80;;;;;;5053403;28;20020;-64
2021/08/13 09:41:51;;;;;;;7.97;5.28;;;32.10;39.30;;;;;;5053381;28;20469;-63
2021/08/13 09:44:28;;;;;;;7.00;3.47;;;32.10;39.60;;;;;;5052995;28;20115;-63
2021/08/13 09:47:05;;;;;;;7.45;3.63;;;32.20;39.70;;;;;;5053176;28;20035;-64
2021/08/13 09:49:33;;;;;;;7.15;3.70;;;32.40;38.80;;;;;;5053099;28;20204;-64
2021/08/13 09:52:19;;;;;;;6.20;3.80;;;32.50;39.00;;;;;;5053079;28;20075;-63
2021/08/13 09:55:03;;;;;;;5.32;2.63;;;32.70;38.60;;;;;;5052719;28;20064;-63
2021/08/13 09:57:41;;;;;;;4.13;2.22;;;32.80;38.40;;;;;;5052947;28;20017;-62
2021/08/13 10:00:07;;;;;;;4.55;2.22;;;32.90;37.80;;;;;;5052813;28;20045;-65
2021/08/13 10:02:43;;;;;;;4.60;2.35;;;32.80;38.10;;;;;;5052685;28;20093;-63
2021/08/13 10:05:22;;;;;;;4.80;2.42;;;33.10;38.50;;;;;;5052827;28;20025;-64
2021/08/13 10:08:00;;;;;;;4.93;2.50;;;33.30;37.80;;;;;;5052744;28;20404;-64
2021/08/13 10:10:31;;;;;;;5.45;2.40;;;33.50;36.90;;;;;;5052729;28;20384;-63
2021/08/13 10:12:58;;;;;;;4.65;2.60;;;33.40;37.10;;;;;;5052551;28;20100;-64
2021/08/13 10:15:43;;;;;;;4.53;2.53;;;33.40;36.90;;;;;;5052256;28;20036;-63
2021/08/13 10:18:10;;;;;;;6.90;2.60;;;33.40;36.40;;;;;;5051808;28;20362;-64
2021/08/13 10:20:45;;;;;;;5.93;2.53;;;33.30;37.10;;;;;;5051378;28;20028;-64
2021/08/13 10:23:12;;;;;;;4.20;2.33;;;33.50;36.70;;;;;;5052348;28;20029;-65
2021/08/13 10:25:39;;;;;;;5.03;2.33;;;33.40;36.70;;;;;;5053177;28;20073;-63
2021/08/13 10:28:04;;;;;;;4.20;2.15;;;33.30;37.10;;;;;;5052369;28;20411;-63
2021/08/13 10:30:30;;;;;;;5.07;2.40;;;33.30;37.20;;;;;;5052162;28;20029;-63
2021/08/13 10:33:02;;;;;;;4.50;2.13;;;33.50;37.50;;;;;;5052026;28;20525;-63
2021/08/13 10:35:30;;;;;;;3.90;1.98;;;33.70;37.10;;;;;;5052611;28;20029;-64
2021/08/13 10:37:59;;;;;;;5.03;2.35;;;33.70;36.60;;;;;;5052273;28;20029;-63
2021/08/13 10:40:25;;;;;;;4.40;2.20;;;33.80;36.90;;;;;;5052459;28;20331;-64
2021/08/13 10:42:52;;;;;;;5.18;2.42;;;33.80;36.90;;;;;;5052311;28;20017;-64
2021/08/13 10:45:23;;;;;;;4.30;2.33;;;33.90;36.90;;;;;;5052423;28;20063;-64
2021/08/13 10:48:00;;;;;;;4.30;2.17;;;33.90;36.90;;;;;;5052259;28;20029;-64
2021/08/13 10:50:27;;;;;;;3.50;1.92;;;34.00;37.00;;;;;;5051784;28;20408;-64
2021/08/13 10:52:53;;;;;;;4.47;2.20;;;34.10;36.60;;;;;;5051819;28;20028;-63
2021/08/13 10:55:47;;;;;;;4.60;2.22;;;34.10;36.80;;;;;;5051815;28;20021;-63
2021/08/13 10:58:13;;;;;;;4.15;2.20;;;34.30;36.40;;;;;;5051944;28;20419;-63
2021/08/13 11:01:09;;;;;;;4.00;2.10;;;34.50;36.40;;;;;;5051869;28;20067;-63
2021/08/13 11:03:54;;;;;;;4.32;1.95;;;34.80;36.50;;;;;;5052110;28;20021;-64
2021/08/13 11:06:38;;;;;;;5.53;2.28;;;35.30;36.50;;;;;;5050555;28;20365;-63
2021/08/13 11:09:13;;;;;;;4.18;1.95;;;35.70;35.70;;;;;;5051638;28;20415;-64
2021/08/13 11:11:51;;;;;;;4.20;2.08;;;35.80;35.60;;;;;;5051648;28;20422;-64
2021/08/13 11:14:25;;;;;;;4.20;2.13;;;36.00;35.50;;;;;;5051630;28;20033;-63
2021/08/13 11:16:52;;;;;;;4.20;2.30;;;36.00;35.60;;;;;;5051441;28;20029;-64
2021/08/13 11:19:21;;;;;;;4.50;2.20;;;36.20;35.20;;;;;;5051600;28;20041;-63
2021/08/13 11:21:49;;;;;;;4.47;2.45;;;36.20;35.00;;;;;;5051508;28;20025;-64
2021/08/13 11:24:22;;;;;;;5.07;2.30;;;36.30;35.00;;;;;;5051263;28;20067;-64
2021/08/13 11:26:48;;;;;;;3.75;2.00;;;36.40;34.80;;;;;;5051342;28;20100;-64
2021/08/13 11:29:29;;;;;;;3.92;1.73;;;36.30;34.80;;;;;;5051451;28;20108;-64
2021/08/13 11:32:05;;;;;;;4.07;1.75;;;36.30;34.50;;;;;;5051241;28;20028;-65
2021/08/13 11:34:53;;;;;;;4.28;1.90;;;36.40;34.70;;;;;;5051210;28;20115;-64
2021/08/13 11:37:30;;;;;;;4.72;2.25;;;36.60;34.30;;;;;;5049898;28;20480;-64
2021/08/13 11:40:05;;;;;;;4.13;2.03;;;36.90;33.90;;;;;;5051121;28;20051;-63
2021/08/13 11:42:31;;;;;;;3.85;1.90;;;36.80;33.70;;;;;;5051203;28;20353;-64
2021/08/13 11:45:04;;;;;;;3.50;1.80;;;36.80;34.40;;;;;;5051350;28;20060;-66
2021/08/13 11:47:29;;;;;;;4.63;1.85;;;36.90;34.00;;;;;;5051124;28;20025;-64
2021/08/13 11:49:56;;;;;;;6.40;1.80;;;36.80;33.80;;;;;;5051184;28;20098;-65
2021/08/13 11:52:24;;;;;;;3.67;1.70;;;36.80;33.80;;;;;;5051004;28;20543;-64
2021/08/13 11:54:51;;;;;;;5.20;1.88;;;36.70;33.90;;;;;;5051127;28;20033;-64
2021/08/13 11:57:22;;;;;;;4.15;1.92;;;36.70;33.80;;;;;;5051048;28;20053;-65
2021/08/13 11:59:50;;;;;;;3.05;1.55;;;36.80;33.00;;;;;;5051133;28;20029;-64
2021/08/13 12:02:31;;;;;;;2.95;1.50;;;36.80;33.40;;;;;;5051100;28;20128;-65
2021/08/13 12:05:07;;;;;;;;;;;37.10;33.50;;;;;;5051338;28;20115;-64
2021/08/13 12:07:34;;;;;;;4.10;1.80;;;37.00;33.50;;;;;;5051284;28;19908;-62
2021/08/13 12:10:12;;;;;;;3.60;1.70;;;37.30;33.30;;;;;;5051111;28;20033;-64
2021/08/13 12:12:38;;;;;;;3.88;1.60;;;37.50;33.00;;;;;;5050927;28;20105;-65
2021/08/13 12:15:05;;;;;;;3.42;1.67;;;37.40;33.10;;;;;;5050935;28;20021;-64
2021/08/13 12:17:31;;;;;;;8.32;1.88;;;37.50;33.00;;;;;;5051477;28;20119;-66
2021/08/13 12:19:59;;;;;;;3.30;1.75;;;37.60;33.10;;;;;;5051100;28;20021;-65
2021/08/13 12:22:35;;;;;;;3.58;1.73;;;37.90;33.00;;;;;;5050762;28;20490;-64
2021/08/13 12:25:04;;;;;;;3.60;1.88;;;38.20;32.80;;;;;;5051030;28;20408;-65
2021/08/13 12:27:32;;;;;;;3.08;1.60;;;38.50;32.50;;;;;;5051361;28;20025;-65
2021/08/13 12:29:59;;;;;;;3.17;1.50;;;38.50;32.50;;;;;;5050994;28;20120;-64
2021/08/13 12:32:40;;;;;;;3.70;1.77;;;38.80;32.30;;;;;;5050917;28;20052;-64
2021/08/13 12:35:11;;;;;;;4.43;1.65;;;38.90;31.90;;;;;;5050543;28;20384;-64
2021/08/13 12:37:37;;;;;;;3.55;1.40;;;38.90;31.80;;;;;;5050855;28;20060;-65
2021/08/13 12:40:04;;;;;;;2.97;1.50;;;39.00;31.70;;;;;;5049380;28;20079;-63
2021/08/13 12:42:30;;;;;;;3.17;1.40;;;38.90;31.60;;;;;;5053879;28;20021;-65
2021/08/13 12:44:58;;;;;;;3.63;1.50;;;38.80;31.70;;;;;;5054371;28;20032;-64
2021/08/13 12:47:24;;;;;;;3.53;1.80;;;38.90;31.70;;;;;;5054461;28;20036;-64
2021/08/13 12:49:50;;;;;;;3.17;1.70;;;38.90;31.90;;;;;;5054133;28;20060;-64
2021/08/13 12:52:21;;;;;;;3.03;1.52;;;38.70;32.00;;;;;;5054176;28;20082;-64
2021/08/13 12:54:52;;;;;;;3.63;1.85;;;38.80;32.00;;;;;;5054200;28;20159;-64
2021/08/13 12:57:19;;;;;;;3.08;1.58;;;39.10;31.90;;;;;;5054297;28;20531;-64
2021/08/13 12:59:49;;;;;;;3.58;1.77;;;39.50;31.50;;;;;;5054111;28;20469;-64
2021/08/13 13:02:28;;;;;;;5.43;2.90;;;39.50;31.20;;;;;;5053744;28;20079;-65
2021/08/13 13:05:06;;;;;;;4.90;2.10;;;39.40;31.20;;;;;;5053904;28;20033;-65
2021/08/13 13:07:37;;;;;;;3.60;1.67;;;39.40;31.40;;;;;;5054046;28;20036;-64
2021/08/13 13:10:17;;;;;;;3.00;1.52;;;39.70;31.70;;;;;;5053928;28;20055;-65
2021/08/13 13:12:43;;;;;;;6.50;2.53;;;39.90;31.30;;;;;;5053781;28;20123;-64
2021/08/13 13:15:24;;;;;;;5.15;2.13;;;40.10;31.10;;;;;;5053643;28;20033;-64
2021/08/13 13:17:56;;;;;;;;;;;39.70;30.70;;;;;;5054302;28;20025;-63
2021/08/13 13:20:22;;;;;;;4.35;2.00;;;39.30;31.20;;;;;;5053841;28;19908;-65
2021/08/13 13:23:09;;;;;;;3.67;1.67;;;39.60;31.30;;;;;;5053768;28;20327;-64
2021/08/13 13:25:46;;;;;;;3.80;1.90;;;39.70;31.10;;;;;;5054150;28;20106;-64
2021/08/13 13:28:25;;;;;;;4.35;2.00;;;39.70;31.10;;;;;;5053648;28;20021;-64
2021/08/13 13:30:51;;;;;;;2.85;1.60;;;39.60;30.90;;;;;;5053708;28;20021;-64
2021/08/13 13:33:28;;;;;;;4.47;2.15;;;39.60;31.30;;;;;;5053251;28;20087;-64
2021/08/13 13:35:59;;;;;;;6.07;2.97;;;39.80;31.30;;;;;;5053574;28;20067;-64
2021/08/13 13:38:27;;;;;;;5.20;2.47;;;39.80;31.30;;;;;;5053188;28;20431;-63
2021/08/13 13:40:53;;;;;;;5.13;2.90;;;40.00;31.50;;;;;;5053184;28;20017;-65
2021/08/13 13:43:19;;;;;;;4.65;2.20;;;40.20;31.10;;;;;;5053359;28;20021;-64
2021/08/13 13:45:44;;;;;;;6.20;3.53;;;40.20;31.20;;;;;;5053035;28;20032;-63
2021/08/13 13:48:10;;;;;;;6.45;2.95;;;40.30;30.90;;;;;;5053432;28;20074;-63
2021/08/13 13:50:36;;;;;;;4.50;2.30;;;40.00;31.20;;;;;;5051696;28;20076;-63
2021/08/13 13:53:03;;;;;;;5.72;2.53;;;39.80;31.20;;;;;;5051957;28;20017;-65
2021/08/13 13:55:29;;;;;;;4.20;2.10;;;39.80;31.00;;;;;;5053048;28;20028;-63
2021/08/13 13:57:55;;;;;;;4.50;2.05;;;39.90;30.80;;;;;;5053009;28;20376;-65
2021/08/13 14:00:21;;;;;;;4.72;2.40;;;40.00;30.80;;;;;;5052939;28;20017;-64
2021/08/13 14:02:47;;;;;;;5.38;2.13;;;40.00;31.10;;;;;;5052869;28;20024;-64
2021/08/13 14:05:15;;;;;;;4.38;2.10;;;40.20;31.00;;;;;;5052993;28;20024;-65
2021/08/13 14:07:43;;;;;;;3.95;2.05;;;40.40;30.90;;;;;;5052838;28;20041;-64
2021/08/13 14:10:11;;;;;;;3.78;1.75;;;40.30;30.80;;;;;;5052779;28;20029;-64
2021/08/13 14:12:38;;;;;;;3.25;1.50;;;40.50;30.90;;;;;;5052609;28;20021;-64
2021/08/13 14:15:08;;;;;;;5.38;2.28;;;40.70;30.80;;;;;;5052338;28;20049;-65
2021/08/13 14:17:34;;;;;;;5.03;2.50;;;40.80;30.40;;;;;;5052636;28;20096;-65
2021/08/13 14:20:01;;;;;;;4.97;2.47;;;40.50;30.50;;;;;;5052695;28;20025;-64
2021/08/13 14:22:26;;;;;;;5.32;2.97;;;40.30;30.60;;;;;;5052705;28;20441;-64
2021/08/13 14:24:52;;;;;;;5.00;2.50;;;40.10;30.70;;;;;;5052452;28;20096;-63
2021/08/13 14:27:18;;;;;;;3.60;1.80;;;39.90;31.00;;;;;;5052557;28;20086;-63
2021/08/13 14:29:43;;;;;;;3.83;2.00;;;39.80;31.40;;;;;;5052533;28;20028;-64
2021/08/13 14:32:09;;;;;;;4.72;2.10;;;39.90;31.30;;;;;;5052052;28;20353;-64
2021/08/13 14:34:35;;;;;;;4.75;2.28;;;40.00;31.20;;;;;;5052224;28;20035;-64
2021/08/13 14:37:01;;;;;;;6.10;2.97;;;40.10;31.00;;;;;;5052382;28;20527;-64
2021/08/13 14:39:26;;;;;;;5.93;2.13;;;40.10;30.90;;;;;;5052712;28;20123;-65
2021/08/13 14:41:53;;;;;;;3.97;2.00;;;39.90;30.80;;;;;;5052040;28;20021;-64
2021/08/13 14:44:18;;;;;;;4.55;2.03;;;39.70;31.70;;;;;;5051989;28;20064;-65
2021/08/13 14:46:46;;;;;;;4.43;2.10;;;39.60;31.20;;;;;;5051904;28;20029;-64
2021/08/13 14:49:12;;;;;;;4.10;2.00;;;39.70;31.10;;;;;;5051699;28;20040;-64
2021/08/13 14:51:38;;;;;;;3.00;1.50;;;39.70;31.10;;;;;;5051640;28;20037;-63
2021/08/13 14:54:05;;;;;;;4.25;2.25;;;39.70;31.10;;;;;;5051851;28;20071;-63
2021/08/13 14:56:30;;;;;;;5.82;3.33;;;39.70;31.10;;;;;;5051604;28;20025;-64
2021/08/13 14:58:56;;;;;;;4.55;2.67;;;39.90;31.00;;;;;;5051382;28;20349;-63
2021/08/13 15:01:22;;;;;;;4.68;2.08;;;39.90;31.10;;;;;;5051920;28;20040;-64
2021/08/13 15:03:48;;;;;;;4.55;2.22;;;39.80;31.30;;;;;;5051348;28;20036;-63
2021/08/13 15:06:14;;;;;;;4.00;1.92;;;39.90;31.20;;;;;;5051670;28;20115;-64
2021/08/13 15:08:39;;;;;;;4.63;2.00;;;40.00;30.80;;;;;;5051651;28;20151;-63
2021/08/13 15:11:05;;;;;;;5.35;2.28;;;39.90;30.90;;;;;;5051488;28;20119;-63
2021/08/13 15:13:31;;;;;;;4.35;2.47;;;39.80;30.90;;;;;;5051180;28;20103;-63
2021/08/13 15:15:56;;;;;;;4.25;2.28;;;39.50;31.00;;;;;;5051267;28;20021;-64
2021/08/13 15:18:22;;;;;;;4.40;2.40;;;39.30;31.10;;;;;;5051301;28;20025;-63
2021/08/13 15:20:48;;;;;;;4.70;2.70;;;39.20;31.50;;;;;;5051480;28;20055;-63
2021/08/13 15:23:13;;;;;;;5.38;2.90;;;39.00;31.20;;;;;;5051190;28;20385;-63
2021/08/13 15:25:39;;;;;;;5.80;4.32;;;38.90;31.30;;;;;;5051656;28;20037;-65
2021/08/13 15:28:05;;;;;;;7.05;4.90;;;38.70;32.30;;;;;;5051935;28;20031;-63
2021/08/13 15:30:31;;;;;;;5.82;2.78;;;38.70;31.90;;;;;;5051318;28;20049;-63
2021/08/13 15:32:57;;;;;;;4.07;2.22;;;38.70;31.90;;;;;;5049633;28;20021;-63
2021/08/13 15:35:23;;;;;;;4.60;2.47;;;38.60;32.00;;;;;;5051213;28;20022;-65
2021/08/13 15:37:48;;;;;;;4.53;2.35;;;38.50;32.10;;;;;;5051285;28;20043;-63
2021/08/13 15:40:19;;;;;;;4.18;2.30;;;38.40;32.10;;;;;;5051166;28;20029;-63
2021/08/13 15:42:45;;;;;;;4.55;2.15;;;38.10;32.20;;;;;;5050801;28;20090;-64
2021/08/13 15:45:11;;;;;;;4.20;2.15;;;37.50;32.40;;;;;;5051132;28;20029;-64
2021/08/13 15:47:37;;;;;;;4.18;2.10;;;36.50;33.10;;;;;;5051293;28;20078;-64
2021/08/13 15:50:04;;;;;;;3.95;2.20;;;35.60;33.90;;;;;;5050771;28;20123;-65
2021/08/13 15:52:29;;;;;;;4.03;2.15;;;35.10;34.30;;;;;;5050753;28;20453;-63
2021/08/13 15:54:55;;;;;;;4.88;2.22;;;35.20;34.40;;;;;;5050820;28;20068;-64
2021/08/13 15:57:21;;;;;;;5.60;2.40;;;35.40;34.30;;;;;;5050870;28;20107;-64
2021/08/13 15:59:46;;;;;;;4.28;2.15;;;35.60;34.30;;;;;;5051090;28;20106;-64
2021/08/13 16:02:12;;;;;;;5.10;2.10;;;35.70;34.10;;;;;;5050818;28;20032;-64
2021/08/13 16:04:38;;;;;;;4.00;1.90;;;35.30;34.00;;;;;;5050977;28;20025;-64
2021/08/13 16:07:05;;;;;;;3.92;1.92;;;34.40;34.50;;;;;;5050781;28;20036;-64
2021/08/13 16:09:30;;;;;;;4.63;2.17;;;33.70;35.30;;;;;;5050764;28;20096;-64
2021/08/13 16:11:56;;;;;;;5.20;2.35;;;33.40;35.80;;;;;;5050813;28;20491;-67
2021/08/13 16:14:22;;;;;;;5.35;2.20;;;33.30;35.80;;;;;;5050521;28;20048;-64
2021/08/13 16:16:50;;;;;;;4.13;2.15;;;33.20;35.80;;;;;;5052192;28;20102;-63
2021/08/13 16:19:16;;;;;;;3.78;1.80;;;33.10;35.80;;;;;;5054706;28;20492;-63
2021/08/13 16:21:42;;;;;;;3.72;1.80;;;33.20;35.70;;;;;;5054446;28;20102;-64
2021/08/13 16:24:11;;;;;;;4.40;2.17;;;33.20;35.70;;;;;;5054497;28;20033;-64
2021/08/13 16:26:38;;;;;;;4.22;2.08;;;33.30;35.90;;;;;;5054526;28;20025;-63
2021/08/13 16:29:04;;;;;;;3.78;1.95;;;33.20;36.00;;;;;;5054431;28;20025;-63
2021/08/13 16:31:31;;;;;;;4.35;2.10;;;33.10;36.20;;;;;;5054486;28;20017;-63
2021/08/13 16:33:57;;;;;;;4.30;2.22;;;32.90;36.30;;;;;;5054405;28;20086;-65
2021/08/13 16:36:22;;;;;;;3.75;1.90;;;32.70;36.40;;;;;;5054600;28;20424;-64
2021/08/13 16:38:48;;;;;;;4.03;2.13;;;32.50;36.70;;;;;;5054519;28;20068;-63
2021/08/13 16:41:14;;;;;;;3.80;1.90;;;32.40;36.80;;;;;;5054391;28;20079;-64